createdAt,value
2023-09-24T00:01:41.611Z,74.27
2023-09-24T00:04:10.313Z,75.20
2023-09-24T00:06:38.199Z,77.05
2023-09-24T00:09:06.218Z,76.51
2023-09-24T00:11:34.258Z,76.52
2023-09-24T00:14:02.070Z,78.04
2023-09-24T00:16:30.018Z,77.25
2023-09-24T00:18:59.947Z,78.03
2023-09-24T00:21:27.789Z,78.07
2023-09-24T00:23:55.623Z,78.35
2023-09-24T00:26:23.727Z,77.10
2023-09-24T00:28:51.689Z,77.09
2023-09-24T00:31:19.744Z,77.98
2023-09-24T00:33:47.983Z,77.43
2023-09-24T00:36:17.803Z,77.84
2023-09-24T00:38:45.638Z,77.75
2023-09-24T00:41:15.089Z,78.85
2023-09-24T00:43:44.344Z,77.21
2023-09-24T00:46:15.120Z,78.72
2023-09-24T00:48:45.566Z,77.91
2023-09-24T00:51:18.885Z,76.88
2023-09-24T00:53:47.873Z,77.82
2023-09-24T00:56:16.477Z,77.07
2023-09-24T00:58:47.869Z,77.22
2023-09-24T01:01:16.274Z,77.04
2023-09-24T01:03:44.448Z,76.11
2023-09-24T01:06:12.463Z,75.33
2023-09-24T01:08:43.448Z,75.94
2023-09-24T01:11:12.484Z,75.35
2023-09-24T01:13:41.388Z,75.94
2023-09-24T01:16:10.658Z,76.17
2023-09-24T01:18:40.746Z,76.64
2023-09-24T01:21:13.888Z,75.96
2023-09-24T01:23:47.530Z,74.77
2023-09-24T01:26:16.373Z,73.95
2023-09-24T01:28:44.611Z,73.84
2023-09-24T01:31:13.300Z,74.23
2023-09-24T01:33:41.564Z,74.25
2023-09-24T01:36:10.335Z,74.07
2023-09-24T01:38:41.655Z,74.05
2023-09-24T01:41:12.191Z,73.65
2023-09-24T01:43:43.617Z,73.88
2023-09-24T01:46:14.902Z,74.82
2023-09-24T01:48:44.521Z,73.64
2023-09-24T01:51:12.701Z,74.76
2023-09-24T01:53:41.405Z,75.11
2023-09-24T01:56:11.954Z,74.44
2023-09-24T01:58:40.349Z,74.64
2023-09-24T02:01:09.423Z,74.97
2023-09-24T02:03:37.742Z,74.99
2023-09-24T02:06:08.309Z,74.48
2023-09-24T02:08:36.701Z,75.99
2023-09-24T02:11:04.902Z,75.62
2023-09-24T02:13:34.294Z,75.03
2023-09-24T02:16:03.720Z,75.41
2023-09-24T02:18:33.833Z,75.16
2023-09-24T02:21:02.127Z,75.72
2023-09-24T02:23:30.558Z,75.35
2023-09-24T02:25:58.691Z,75.53
2023-09-24T02:28:26.555Z,76.63
2023-09-24T02:30:56.408Z,75.97
2023-09-24T02:33:24.463Z,76.00
2023-09-24T02:35:52.463Z,77.42
2023-09-24T02:38:20.952Z,77.01
2023-09-24T02:40:48.814Z,76.81
2023-09-24T02:43:16.803Z,76.61
2023-09-24T02:45:44.709Z,77.74
2023-09-24T02:48:14.474Z,77.41
2023-09-24T02:50:42.396Z,76.76
2023-09-24T02:53:10.879Z,76.22
2023-09-24T02:55:39.015Z,75.81
2023-09-24T02:58:07.198Z,76.24
2023-09-24T03:00:37.571Z,76.54
2023-09-24T03:03:07.556Z,77.09
2023-09-24T03:05:37.595Z,76.56
2023-09-24T03:08:06.361Z,76.08
2023-09-24T03:10:35.496Z,75.95
2023-09-24T03:13:05.879Z,75.75
2023-09-24T03:15:34.223Z,74.77
2023-09-24T03:18:02.181Z,74.79
2023-09-24T03:20:30.893Z,74.10
2023-09-24T03:23:04.686Z,75.00
2023-09-24T03:25:33.846Z,74.53
2023-09-24T03:28:02.758Z,73.95
2023-09-24T03:30:31.456Z,75.01
2023-09-24T03:33:00.199Z,75.84
2023-09-24T03:35:29.891Z,75.64
2023-09-24T03:37:58.157Z,75.16
2023-09-24T03:40:28.869Z,75.92
2023-09-24T03:42:56.905Z,75.64
2023-09-24T03:45:26.411Z,75.91
2023-09-24T03:47:55.046Z,76.26
2023-09-24T03:50:22.981Z,76.08
2023-09-24T03:52:54.464Z,76.76
2023-09-24T03:55:22.419Z,77.42
2023-09-24T03:57:51.674Z,76.87
2023-09-24T04:00:22.210Z,77.00
2023-09-24T04:02:52.018Z,76.86
2023-09-24T04:05:24.321Z,77.36
2023-09-24T04:07:54.457Z,77.02
2023-09-24T04:10:23.998Z,77.35
2023-09-24T04:12:53.519Z,76.92
2023-09-24T04:15:23.664Z,76.75
2023-09-24T04:17:52.074Z,76.73
2023-09-24T04:20:22.067Z,76.43
2023-09-24T04:22:50.894Z,76.13
2023-09-24T04:25:22.381Z,75.83
2023-09-24T04:27:50.698Z,76.24
2023-09-24T04:30:22.259Z,75.99
2023-09-24T04:32:53.764Z,75.17
2023-09-24T04:35:22.431Z,76.12
2023-09-24T04:37:51.410Z,75.45
2023-09-24T04:40:19.843Z,75.57
2023-09-24T04:42:48.751Z,74.26
2023-09-24T04:45:18.969Z,75.01
2023-09-24T04:47:50.145Z,75.82
2023-09-24T04:50:18.509Z,75.85
2023-09-24T04:52:49.040Z,76.62
2023-09-24T04:55:17.254Z,76.94
2023-09-24T04:57:45.679Z,76.62
2023-09-24T05:00:16.162Z,76.45
2023-09-24T05:02:44.551Z,77.83
2023-09-24T05:05:15.676Z,76.99
2023-09-24T05:07:43.708Z,77.23
2023-09-24T05:10:11.728Z,78.13
2023-09-24T05:12:39.544Z,77.80
2023-09-24T05:15:09.041Z,79.00
2023-09-24T05:17:37.259Z,78.90
2023-09-24T05:20:06.748Z,78.78
2023-09-24T05:22:35.992Z,79.83
2023-09-24T05:25:04.292Z,79.78
2023-09-24T05:27:33.759Z,79.71
2023-09-24T05:30:02.050Z,80.23
2023-09-24T05:32:29.988Z,79.51
2023-09-24T05:34:57.896Z,79.51
2023-09-24T05:37:25.815Z,76.95
2023-09-24T05:39:55.029Z,78.10
2023-09-24T05:42:22.867Z,78.37
2023-09-24T05:44:50.755Z,79.16
2023-09-24T05:47:18.595Z,79.25
2023-09-24T05:49:46.358Z,78.22
2023-09-24T05:52:14.123Z,78.89
2023-09-24T05:54:42.760Z,77.66
2023-09-24T05:57:12.109Z,78.45
2023-09-24T05:59:40.114Z,79.35
2023-09-24T06:02:08.371Z,79.08
2023-09-24T06:04:36.427Z,79.15
2023-09-24T06:07:04.416Z,78.15
2023-09-24T06:09:32.389Z,78.93
2023-09-24T06:12:00.201Z,78.25
2023-09-24T06:14:29.895Z,78.44
2023-09-24T06:16:57.990Z,79.91
2023-09-24T06:19:25.729Z,79.19
2023-09-24T06:21:53.910Z,79.40
2023-09-24T06:24:22.634Z,78.77
2023-09-24T06:26:50.512Z,80.01
2023-09-24T06:29:18.413Z,79.62
2023-09-24T06:31:48.781Z,79.59
2023-09-24T06:34:16.659Z,79.73
2023-09-24T06:36:44.480Z,79.25
2023-09-24T06:39:15.292Z,79.87
2023-09-24T06:41:43.966Z,80.93
2023-09-24T06:44:12.303Z,80.87
2023-09-24T06:46:40.128Z,80.26
2023-09-24T06:49:09.308Z,79.06
2023-09-24T06:51:37.150Z,78.51
2023-09-24T06:54:05.101Z,76.95
2023-09-24T06:56:32.933Z,77.43
2023-09-24T06:59:00.776Z,76.88
2023-09-24T07:01:29.195Z,76.84
2023-09-24T07:03:57.215Z,76.44
2023-09-24T07:06:28.194Z,76.91
2023-09-24T07:08:56.241Z,75.65
2023-09-24T07:11:26.371Z,75.84
2023-09-24T07:13:54.502Z,75.81
2023-09-24T07:16:25.132Z,75.49
2023-09-24T07:18:54.253Z,74.29
2023-09-24T07:21:33.728Z,73.75
2023-09-24T07:24:06.314Z,74.26
2023-09-24T07:26:34.416Z,74.93
2023-09-24T07:29:02.340Z,73.77
2023-09-24T07:31:31.672Z,73.99
2023-09-24T07:34:02.330Z,72.96
2023-09-24T07:36:36.120Z,72.38
2023-09-24T07:39:11.197Z,71.80
2023-09-24T07:41:39.156Z,71.13
2023-09-24T07:44:07.679Z,70.21
2023-09-24T07:46:35.603Z,70.60
2023-09-24T07:49:06.762Z,70.42
2023-09-24T07:51:35.242Z,69.42
2023-09-24T07:54:03.201Z,69.98
2023-09-24T07:56:32.860Z,69.77
2023-09-24T07:59:01.916Z,69.00
2023-09-24T08:01:30.041Z,67.45
2023-09-24T08:03:58.049Z,67.76
2023-09-24T08:06:29.022Z,68.47
2023-09-24T08:09:09.062Z,67.84
2023-09-24T08:11:46.135Z,67.11
2023-09-24T08:14:13.974Z,66.51
2023-09-24T08:16:42.391Z,65.27
2023-09-24T08:19:10.393Z,65.90
2023-09-24T08:21:38.246Z,66.05
2023-09-24T08:24:06.846Z,65.61
2023-09-24T08:26:35.108Z,65.88
2023-09-24T08:29:07.490Z,66.33
2023-09-24T08:31:36.462Z,65.63
2023-09-24T08:34:04.670Z,64.92
2023-09-24T08:36:32.598Z,65.50
2023-09-24T08:39:05.809Z,64.10
2023-09-24T08:41:34.891Z,64.46
2023-09-24T08:44:07.211Z,63.25
2023-09-24T08:46:36.583Z,63.33
2023-09-24T08:49:05.254Z,63.21
2023-09-24T08:51:35.098Z,63.65
2023-09-24T08:54:03.707Z,63.35
2023-09-24T08:56:31.725Z,64.16
2023-09-24T08:59:00.287Z,63.17
2023-09-24T09:01:29.511Z,63.19
2023-09-24T09:03:57.413Z,62.17
2023-09-24T09:06:32.912Z,62.76
2023-09-24T09:09:01.358Z,63.27
2023-09-24T09:11:39.664Z,62.18
2023-09-24T09:14:07.489Z,62.95
2023-09-24T09:16:56.639Z,62.31
2023-09-24T09:19:24.929Z,61.88
2023-09-24T09:21:53.745Z,62.30
2023-09-24T09:24:23.949Z,61.85
2023-09-24T09:26:55.916Z,61.24
2023-09-24T09:29:24.686Z,61.21
2023-09-24T09:31:55.660Z,60.45
2023-09-24T09:34:24.229Z,60.83
2023-09-24T09:36:52.682Z,61.33
2023-09-24T09:39:20.632Z,61.11
2023-09-24T09:41:51.737Z,61.49
2023-09-24T09:44:26.729Z,61.19
2023-09-24T09:47:01.363Z,60.36
2023-09-24T09:49:33.821Z,61.03
2023-09-24T09:52:03.601Z,60.58
2023-09-24T09:54:36.058Z,60.14
2023-09-24T09:57:06.207Z,60.11
2023-09-24T09:59:36.323Z,60.24
2023-09-24T10:02:06.989Z,60.46
2023-09-24T10:04:37.065Z,60.86
2023-09-24T10:07:06.567Z,59.94
2023-09-24T10:09:37.613Z,59.94
2023-09-24T10:12:08.272Z,59.94
2023-09-24T10:14:38.294Z,59.63
2023-09-24T10:17:41.133Z,59.41
2023-09-24T10:20:10.412Z,59.87
2023-09-24T10:22:41.613Z,59.95
2023-09-24T10:25:34.123Z,58.94
2023-09-24T10:28:08.765Z,58.77
2023-09-24T10:31:05.625Z,58.41
2023-09-24T10:34:00.636Z,58.31
2023-09-24T10:36:30.708Z,58.13
2023-09-24T10:39:11.735Z,58.59
2023-09-24T10:42:17.001Z,58.15
2023-09-24T10:44:45.071Z,58.13
2023-09-24T10:47:26.607Z,57.98
2023-09-24T10:50:03.995Z,58.22
2023-09-24T10:52:47.129Z,56.66
2023-09-24T10:55:16.692Z,56.94
2023-09-24T10:57:51.294Z,56.54
2023-09-24T11:00:20.103Z,56.56
2023-09-24T11:02:54.849Z,56.17
2023-09-24T11:05:22.935Z,56.23
2023-09-24T11:07:50.734Z,56.06
2023-09-24T11:10:19.878Z,56.39
2023-09-24T11:12:52.304Z,55.85
2023-09-24T11:15:21.065Z,56.75
2023-09-24T11:17:51.233Z,57.01
2023-09-24T11:20:22.113Z,56.98
2023-09-24T11:22:58.337Z,57.10
2023-09-24T11:25:26.355Z,55.67
2023-09-24T11:27:56.546Z,55.39
2023-09-24T11:30:28.120Z,55.30
2023-09-24T11:32:56.058Z,54.45
2023-09-24T11:35:26.646Z,56.39
2023-09-24T11:37:57.894Z,54.79
2023-09-24T11:40:26.368Z,56.00
2023-09-24T11:42:57.462Z,55.20
2023-09-24T11:45:49.579Z,53.12
2023-09-24T11:48:21.429Z,55.15
2023-09-24T11:50:51.144Z,54.22
2023-09-24T11:53:24.120Z,54.16
2023-09-24T11:55:54.070Z,53.55
2023-09-24T11:58:27.342Z,53.31
2023-09-24T12:00:56.226Z,54.20
2023-09-24T12:03:24.966Z,54.43
2023-09-24T12:05:53.274Z,54.14
2023-09-24T12:08:22.234Z,54.55
2023-09-24T12:10:52.041Z,53.01
2023-09-24T12:13:20.417Z,53.86
2023-09-24T12:15:49.687Z,53.06
2023-09-24T12:18:17.622Z,53.68
2023-09-24T12:20:46.343Z,53.56
2023-09-24T12:23:14.315Z,52.30
2023-09-24T12:25:44.622Z,52.74
2023-09-24T12:28:15.225Z,53.06
2023-09-24T12:30:44.304Z,51.75
2023-09-24T12:33:15.410Z,51.63
2023-09-24T12:35:43.998Z,51.54
2023-09-24T12:38:12.792Z,50.61
2023-09-24T12:40:40.670Z,51.17
2023-09-24T12:43:08.516Z,51.68
2023-09-24T12:45:36.383Z,51.40
2023-09-24T12:48:04.542Z,50.25
2023-09-24T12:50:35.428Z,49.82
2023-09-24T12:53:03.304Z,50.25
2023-09-24T12:55:31.360Z,50.14
2023-09-24T12:57:59.388Z,50.27
2023-09-24T13:00:27.233Z,50.01
2023-09-24T13:02:55.218Z,48.29
2023-09-24T13:05:24.627Z,49.57
2023-09-24T13:07:53.808Z,50.36
2023-09-24T13:10:21.631Z,50.65
2023-09-24T13:12:49.479Z,48.96
2023-09-24T13:15:17.366Z,49.35
2023-09-24T13:17:45.315Z,49.16
2023-09-24T13:20:14.641Z,48.02
2023-09-24T13:22:42.782Z,48.07
2023-09-24T13:25:14.846Z,49.92
2023-09-24T13:27:43.212Z,49.17
2023-09-24T13:30:11.433Z,48.32
2023-09-24T13:32:40.005Z,47.99
2023-09-24T13:35:09.078Z,47.68
2023-09-24T13:37:38.947Z,47.37
2023-09-24T13:40:22.771Z,47.45
2023-09-24T13:42:56.360Z,47.00
2023-09-24T13:45:25.112Z,46.79
2023-09-24T13:47:52.985Z,46.46
2023-09-24T13:50:20.923Z,45.72
2023-09-24T13:52:48.865Z,46.55
2023-09-24T13:55:16.816Z,46.83
2023-09-24T13:57:44.605Z,45.74
2023-09-24T14:00:14.816Z,45.17
2023-09-24T14:02:44.085Z,45.64
2023-09-24T14:05:12.014Z,45.33
2023-09-24T14:07:39.832Z,45.81
2023-09-24T14:10:25.589Z,46.26
2023-09-24T14:12:53.340Z,45.63
2023-09-24T14:15:22.548Z,44.80
2023-09-24T14:18:02.806Z,44.45
2023-09-24T14:20:38.161Z,43.70
2023-09-24T14:23:06.017Z,44.76
2023-09-24T14:25:39.057Z,44.97
2023-09-24T14:28:07.410Z,43.51
2023-09-24T14:30:38.892Z,44.18
2023-09-24T14:33:07.837Z,44.29
2023-09-24T14:35:36.697Z,42.71
2023-09-24T14:38:05.095Z,42.73
2023-09-24T14:40:36.532Z,42.93
2023-09-24T14:43:04.744Z,42.75
2023-09-24T14:45:32.577Z,42.35
2023-09-24T14:48:02.534Z,43.34
2023-09-24T14:50:30.451Z,43.66
2023-09-24T14:52:58.338Z,43.45
2023-09-24T14:55:26.286Z,43.53
2023-09-24T14:57:55.750Z,44.23
2023-09-24T15:00:25.963Z,43.98
2023-09-24T15:02:57.029Z,44.59
2023-09-24T15:05:26.674Z,44.32
2023-09-24T15:07:54.737Z,43.27
2023-09-24T15:10:23.748Z,43.55
2023-09-24T15:12:53.364Z,44.16
2023-09-24T15:15:21.161Z,43.45
2023-09-24T15:17:49.091Z,42.64
2023-09-24T15:20:17.098Z,42.87
2023-09-24T15:22:47.008Z,41.63
2023-09-24T15:25:14.871Z,41.56
2023-09-24T15:27:42.705Z,40.71
2023-09-24T15:30:11.196Z,41.25
2023-09-24T15:32:39.069Z,40.53
2023-09-24T15:35:07.678Z,40.70
2023-09-24T15:37:35.476Z,41.98
2023-09-24T15:40:05.508Z,42.72
2023-09-24T15:42:33.421Z,43.12
2023-09-24T15:45:01.315Z,43.68
2023-09-24T15:47:29.167Z,42.25
2023-09-24T15:49:58.351Z,42.23
2023-09-24T15:52:26.265Z,43.62
2023-09-24T15:54:54.195Z,43.13
2023-09-24T15:57:24.285Z,43.83
2023-09-24T15:59:52.210Z,42.85
2023-09-24T16:02:20.171Z,43.48
2023-09-24T16:04:48.675Z,42.71
2023-09-24T16:07:16.546Z,42.46
2023-09-24T16:09:44.450Z,43.00
2023-09-24T16:12:12.322Z,42.41
2023-09-24T16:14:41.619Z,42.23
2023-09-24T16:17:09.695Z,42.41
2023-09-24T16:19:37.545Z,42.65
2023-09-24T16:22:05.606Z,42.24
2023-09-24T16:24:33.952Z,42.27
2023-09-24T16:27:01.862Z,42.02
2023-09-24T16:29:29.715Z,42.52
2023-09-24T16:31:58.962Z,42.88
2023-09-24T16:34:29.382Z,42.36
2023-09-24T16:36:57.175Z,42.87
2023-09-24T16:39:25.056Z,42.68
2023-09-24T16:41:52.841Z,42.81
2023-09-24T16:44:20.686Z,42.32
2023-09-24T16:46:49.745Z,42.48
2023-09-24T16:49:18.955Z,43.13
2023-09-24T16:51:48.544Z,43.39
2023-09-24T16:54:16.723Z,42.69
2023-09-24T16:56:44.554Z,43.82
2023-09-24T16:59:12.407Z,43.18
2023-09-24T17:01:40.465Z,43.14
2023-09-24T17:04:08.683Z,43.95
2023-09-24T17:06:37.991Z,44.21
2023-09-24T17:09:05.941Z,44.46
2023-09-24T17:11:33.744Z,44.99
2023-09-24T17:14:03.695Z,45.10
2023-09-24T17:16:31.565Z,45.27
2023-09-24T17:18:59.397Z,45.28
2023-09-24T17:21:29.113Z,44.70
2023-09-24T17:23:58.694Z,46.34
2023-09-24T17:26:26.897Z,45.55
2023-09-24T17:28:54.712Z,47.38
2023-09-24T17:31:23.397Z,47.15
2023-09-24T17:33:51.369Z,47.67
2023-09-24T17:36:20.960Z,48.25
2023-09-24T17:38:49.621Z,48.96
2023-09-24T17:41:19.185Z,48.80
2023-09-24T17:43:47.461Z,49.48
2023-09-24T17:46:18.084Z,49.30
2023-09-24T17:48:47.511Z,49.71
2023-09-24T17:51:16.534Z,51.20
2023-09-24T17:53:44.849Z,50.81
2023-09-24T17:56:13.828Z,50.50
2023-09-24T17:58:43.535Z,50.80
2023-09-24T18:01:13.456Z,51.13
2023-09-24T18:03:43.530Z,51.53
2023-09-24T18:06:11.986Z,51.43
2023-09-24T18:08:40.992Z,51.47
2023-09-24T18:11:09.103Z,52.18
2023-09-24T18:13:38.660Z,52.00
2023-09-24T18:16:08.264Z,51.90
2023-09-24T18:18:37.461Z,52.29
2023-09-24T18:21:06.474Z,52.52
2023-09-24T18:23:35.896Z,52.35
2023-09-24T18:26:04.760Z,52.74
2023-09-24T18:28:32.826Z,53.34
2023-09-24T18:31:01.746Z,53.98
2023-09-24T18:33:32.455Z,54.53
2023-09-24T18:36:01.918Z,55.13
2023-09-24T18:38:30.517Z,55.13
2023-09-24T18:40:58.756Z,55.01
2023-09-24T18:43:27.257Z,55.38
2023-09-24T18:46:01.759Z,55.42
2023-09-24T18:48:32.961Z,56.23
2023-09-24T18:51:01.269Z,56.77
2023-09-24T18:53:30.489Z,56.73
2023-09-24T18:56:02.729Z,56.58
2023-09-24T18:58:32.113Z,56.63
2023-09-24T19:01:00.658Z,56.46
2023-09-24T19:03:29.335Z,56.37
2023-09-24T19:05:58.735Z,57.02
2023-09-24T19:08:27.302Z,57.75
2023-09-24T19:10:55.973Z,57.73
2023-09-24T19:13:30.110Z,57.88
2023-09-24T19:16:06.300Z,57.81
2023-09-24T19:18:34.680Z,58.46
2023-09-24T19:21:05.346Z,57.79
2023-09-24T19:23:33.650Z,58.47
2023-09-24T19:26:12.128Z,58.12
2023-09-24T19:28:40.504Z,58.47
2023-09-24T19:31:09.348Z,59.29
2023-09-24T19:33:38.727Z,59.83
2023-09-24T19:36:09.093Z,59.74
2023-09-24T19:38:37.559Z,60.13
2023-09-24T19:41:07.008Z,59.98
2023-09-24T19:43:34.981Z,60.27
2023-09-24T19:46:03.431Z,59.51
2023-09-24T19:48:32.425Z,60.74
2023-09-24T19:51:00.974Z,60.70
2023-09-24T19:53:30.803Z,61.60
2023-09-24T19:55:59.248Z,63.14
2023-09-24T19:58:29.043Z,64.29
2023-09-24T20:01:01.383Z,64.33
2023-09-24T20:03:29.561Z,64.57
2023-09-24T20:05:58.123Z,64.08
2023-09-24T20:08:30.629Z,64.14
2023-09-24T20:11:00.720Z,63.84
2023-09-24T20:13:30.824Z,63.60
2023-09-24T20:15:59.151Z,64.58
2023-09-24T20:18:27.826Z,64.71
2023-09-24T20:20:56.153Z,64.93
2023-09-24T20:23:24.119Z,66.07
2023-09-24T20:25:54.259Z,65.80
2023-09-24T20:28:33.702Z,66.16
2023-09-24T20:31:12.234Z,66.32
2023-09-24T20:33:49.885Z,66.72
2023-09-24T20:36:26.845Z,65.51
2023-09-24T20:38:54.704Z,65.01
2023-09-24T20:41:22.557Z,64.73
2023-09-24T20:43:52.479Z,65.24
2023-09-24T20:46:23.307Z,66.68
2023-09-24T20:48:51.484Z,67.26
2023-09-24T20:51:19.772Z,67.08
2023-09-24T20:53:47.733Z,68.52
2023-09-24T20:56:16.101Z,69.37
2023-09-24T20:58:46.689Z,68.26
2023-09-24T21:01:16.025Z,67.47
2023-09-24T21:03:45.504Z,66.67
2023-09-24T21:06:13.820Z,66.04
2023-09-24T21:08:41.852Z,65.13
2023-09-24T21:11:09.807Z,66.01
2023-09-24T21:13:37.721Z,66.21
2023-09-24T21:16:08.976Z,66.79
2023-09-24T21:18:38.253Z,67.74
2023-09-24T21:21:06.184Z,68.13
2023-09-24T21:23:34.053Z,67.86
2023-09-24T21:26:03.132Z,68.65
2023-09-24T21:28:31.038Z,69.52
2023-09-24T21:31:04.505Z,69.25
2023-09-24T21:33:32.618Z,69.44
2023-09-24T21:36:02.018Z,70.29
2023-09-24T21:38:29.959Z,71.56
2023-09-24T21:40:58.141Z,72.13
2023-09-24T21:43:31.062Z,72.38
2023-09-24T21:45:59.730Z,72.01
2023-09-24T21:48:27.706Z,72.25
2023-09-24T21:50:56.418Z,73.68
2023-09-24T21:53:25.757Z,73.50
2023-09-24T21:55:55.405Z,72.66
2023-09-24T21:58:23.321Z,73.77
2023-09-24T22:00:51.159Z,74.42
2023-09-24T22:03:19.927Z,73.58
2023-09-24T22:05:48.148Z,73.14
2023-09-24T22:08:16.028Z,74.68
2023-09-24T22:10:45.273Z,72.88
2023-09-24T22:13:13.071Z,72.28
2023-09-24T22:15:41.016Z,73.07
2023-09-24T22:18:08.946Z,71.79
2023-09-24T22:20:36.825Z,73.16
2023-09-24T22:23:05.009Z,73.05
2023-09-24T22:25:32.859Z,73.80
2023-09-24T22:28:02.107Z,72.42
2023-09-24T22:30:31.509Z,72.59
2023-09-24T22:32:59.933Z,73.16
2023-09-24T22:35:27.788Z,73.09
2023-09-24T22:37:55.710Z,73.55
2023-09-24T22:40:23.511Z,74.03
2023-09-24T22:42:51.288Z,73.84
2023-09-24T22:45:20.495Z,73.64
2023-09-24T22:47:48.549Z,75.21
2023-09-24T22:50:16.392Z,74.76
2023-09-24T22:52:44.255Z,74.60
2023-09-24T22:55:12.813Z,75.25
2023-09-24T22:57:41.746Z,75.60
2023-09-24T23:00:14.830Z,74.59
2023-09-24T23:02:44.324Z,74.54
2023-09-24T23:05:13.802Z,74.50
2023-09-24T23:07:42.140Z,74.58
2023-09-24T23:10:11.797Z,74.03
2023-09-24T23:12:39.783Z,73.46
2023-09-24T23:15:08.701Z,72.86
2023-09-24T23:17:36.582Z,73.45
2023-09-24T23:20:09.649Z,72.11
2023-09-24T23:22:37.440Z,71.53
2023-09-24T23:25:06.118Z,72.41
2023-09-24T23:27:33.955Z,72.32
2023-09-24T23:30:01.832Z,71.71
2023-09-24T23:32:30.466Z,72.41
2023-09-24T23:34:58.370Z,71.52
2023-09-24T23:37:28.061Z,72.20
2023-09-24T23:39:56.066Z,71.63
2023-09-24T23:42:25.789Z,72.16
2023-09-24T23:44:53.652Z,72.28
2023-09-24T23:47:22.462Z,71.79
2023-09-24T23:49:50.391Z,70.91
2023-09-24T23:52:18.218Z,69.44
2023-09-24T23:54:47.992Z,70.74
2023-09-24T23:57:15.965Z,69.22
2023-09-24T23:59:44.004Z,69.21
